createdAt,value
2024-03-14T00:01:34.945Z,94306.25
2024-03-14T00:04:07.319Z,94307.34
2024-03-14T00:06:34.235Z,94303.81
2024-03-14T00:09:02.364Z,94306.75
2024-03-14T00:11:30.890Z,94296.00
2024-03-14T00:13:59.331Z,94307.13
2024-03-14T00:16:28.175Z,94300.59
2024-03-14T00:18:55.647Z,94301.66
2024-03-14T00:21:22.850Z,94298.59
2024-03-14T00:23:54.480Z,94302.28
2024-03-14T00:26:21.557Z,94296.13
2024-03-14T00:28:48.618Z,94299.69
2024-03-14T00:31:16.523Z,94301.44
2024-03-14T00:33:44.882Z,94299.47
2024-03-14T00:36:17.314Z,94304.09
2024-03-14T00:38:44.407Z,94299.25
2024-03-14T00:41:17.964Z,94290.06
2024-03-14T00:43:45.245Z,94292.81
2024-03-14T00:46:13.620Z,94287.97
2024-03-14T00:48:41.911Z,94292.06
2024-03-14T00:51:11.129Z,94284.91
2024-03-14T00:53:38.411Z,94273.63
2024-03-14T00:56:07.253Z,94276.88
2024-03-14T00:58:34.346Z,94279.72
2024-03-14T01:01:01.409Z,94274.38
2024-03-14T01:03:30.088Z,94275.97
2024-03-14T01:05:59.408Z,94270.22
2024-03-14T01:08:28.307Z,94267.56
2024-03-14T01:10:55.488Z,94268.56
2024-03-14T01:13:22.735Z,94270.59
2024-03-14T01:15:49.819Z,94263.72
2024-03-14T01:18:17.163Z,94264.47
2024-03-14T01:20:44.496Z,94270.59
2024-03-14T01:23:12.616Z,94266.63
2024-03-14T01:25:40.527Z,94256.78
2024-03-14T01:28:08.930Z,94255.53
2024-03-14T01:30:36.626Z,94254.19
2024-03-14T01:33:06.102Z,94259.16
2024-03-14T01:35:33.191Z,94257.75
2024-03-14T01:38:01.119Z,94260.81
2024-03-14T01:40:28.271Z,94252.00
2024-03-14T01:42:56.768Z,94262.41
2024-03-14T01:45:23.929Z,94262.69
2024-03-14T01:47:51.143Z,94258.22
2024-03-14T01:50:18.138Z,94257.22
2024-03-14T01:52:45.808Z,94251.19
2024-03-14T01:55:13.868Z,94257.94
2024-03-14T01:57:41.294Z,94255.63
2024-03-14T02:00:17.303Z,94250.81
2024-03-14T02:02:44.599Z,94247.28
2024-03-14T02:05:19.888Z,94253.78
2024-03-14T02:07:48.194Z,94249.03
2024-03-14T02:10:16.076Z,94255.38
2024-03-14T02:12:43.399Z,94249.59
2024-03-14T02:15:10.537Z,94247.59
2024-03-14T02:17:37.888Z,94248.44
2024-03-14T02:20:08.307Z,94241.88
2024-03-14T02:22:35.739Z,94251.06
2024-03-14T02:25:05.765Z,94237.88
2024-03-14T02:27:37.034Z,94244.19
2024-03-14T02:30:06.768Z,94243.72
2024-03-14T02:32:34.166Z,94239.50
2024-03-14T02:35:05.435Z,94240.16
2024-03-14T02:37:33.760Z,94232.94
2024-03-14T02:40:00.933Z,94244.03
2024-03-14T02:42:28.061Z,94240.56
2024-03-14T02:44:56.349Z,94244.19
2024-03-14T02:47:23.607Z,94244.84
2024-03-14T02:49:51.170Z,94248.16
2024-03-14T02:52:18.208Z,94243.44
2024-03-14T02:54:46.862Z,94243.19
2024-03-14T02:57:13.875Z,94239.75
2024-03-14T02:59:41.146Z,94251.41
2024-03-14T03:02:13.471Z,94245.38
2024-03-14T03:04:40.555Z,94251.47
2024-03-14T03:07:08.362Z,94245.41
2024-03-14T03:09:39.572Z,94253.13
2024-03-14T03:12:07.345Z,94249.38
2024-03-14T03:14:34.968Z,94252.84
2024-03-14T03:17:04.734Z,94249.22
2024-03-14T03:19:31.695Z,94246.50
2024-03-14T03:22:00.097Z,94254.25
2024-03-14T03:24:27.432Z,94249.31
2024-03-14T03:26:54.819Z,94256.56
2024-03-14T03:29:21.900Z,94258.19
2024-03-14T03:31:49.520Z,94245.53
2024-03-14T03:34:16.914Z,94249.31
2024-03-14T03:36:47.889Z,94256.44
2024-03-14T03:39:15.354Z,94257.94
2024-03-14T03:41:42.736Z,94263.66
2024-03-14T03:44:11.193Z,94257.72
2024-03-14T03:46:45.030Z,94262.34
2024-03-14T03:49:15.122Z,94271.97
2024-03-14T03:51:42.143Z,94271.25
2024-03-14T03:54:10.532Z,94274.13
2024-03-14T03:56:38.686Z,94273.19
2024-03-14T03:59:09.563Z,94276.78
2024-03-14T04:01:36.968Z,94274.28
2024-03-14T04:04:04.209Z,94270.59
2024-03-14T04:06:34.692Z,94274.50
2024-03-14T04:09:02.954Z,94275.66
2024-03-14T04:11:30.110Z,94277.38
2024-03-14T04:13:57.100Z,94277.03
2024-03-14T04:16:24.031Z,94274.72
2024-03-14T04:18:51.054Z,94279.06
2024-03-14T04:21:18.308Z,94266.06
2024-03-14T04:23:45.390Z,94279.13
2024-03-14T04:26:17.675Z,94272.63
2024-03-14T04:28:45.474Z,94274.63
2024-03-14T04:31:12.471Z,94278.97
2024-03-14T04:33:41.407Z,94281.31
2024-03-14T04:36:10.838Z,94269.53
2024-03-14T04:38:39.509Z,94283.31
2024-03-14T04:41:16.590Z,94280.94
2024-03-14T04:43:46.997Z,94278.25
2024-03-14T04:46:13.973Z,94291.56
2024-03-14T04:48:41.005Z,94285.22
2024-03-14T04:51:10.057Z,94293.53
2024-03-14T04:53:38.394Z,94292.81
2024-03-14T04:56:06.094Z,94287.47
2024-03-14T04:58:33.134Z,94298.97
2024-03-14T05:01:00.090Z,94297.81
2024-03-14T05:03:30.282Z,94295.41
2024-03-14T05:06:00.292Z,94298.81
2024-03-14T05:08:27.355Z,94301.84
2024-03-14T05:10:54.419Z,94296.41
2024-03-14T05:13:21.573Z,94307.06
2024-03-14T05:15:48.705Z,94300.56
2024-03-14T05:18:15.812Z,94314.28
2024-03-14T05:20:43.013Z,94311.09
2024-03-14T05:23:11.259Z,94307.13
2024-03-14T05:25:38.221Z,94308.88
2024-03-14T05:28:07.832Z,94318.91
2024-03-14T05:30:35.001Z,94312.56
2024-03-14T05:33:15.320Z,94314.28
2024-03-14T05:35:42.426Z,94342.09
2024-03-14T05:38:10.228Z,94323.88
2024-03-14T05:40:37.278Z,94325.34
2024-03-14T05:43:04.775Z,94321.09
2024-03-14T05:45:35.856Z,94335.38
2024-03-14T05:48:13.010Z,94330.00
2024-03-14T05:50:40.300Z,94323.13
2024-03-14T05:53:07.404Z,94323.69
2024-03-14T05:55:34.439Z,94331.72
2024-03-14T05:58:01.342Z,94332.81
2024-03-14T06:00:30.669Z,94336.00
2024-03-14T06:02:58.012Z,94329.72
2024-03-14T06:05:25.625Z,94334.19
2024-03-14T06:07:52.580Z,94338.09
2024-03-14T06:10:20.356Z,94333.81
2024-03-14T06:12:47.532Z,94340.78
2024-03-14T06:15:14.947Z,94343.13
2024-03-14T06:17:45.913Z,94345.72
2024-03-14T06:20:13.873Z,94343.13
2024-03-14T06:22:45.818Z,94348.31
2024-03-14T06:25:13.221Z,94350.25
2024-03-14T06:27:40.597Z,94346.22
2024-03-14T06:30:13.419Z,94348.88
2024-03-14T06:32:49.197Z,94344.91
2024-03-14T06:35:17.318Z,94368.00
2024-03-14T06:37:45.269Z,94362.41
2024-03-14T06:40:15.575Z,94357.28
2024-03-14T06:42:42.721Z,94362.19
2024-03-14T06:45:12.410Z,94366.34
2024-03-14T06:47:42.084Z,94364.38
2024-03-14T06:50:11.424Z,94368.00
2024-03-14T06:52:39.293Z,94380.91
2024-03-14T06:55:11.507Z,94375.34
2024-03-14T06:57:41.456Z,94379.00
2024-03-14T07:00:15.447Z,94368.53
2024-03-14T07:02:42.827Z,94375.13
2024-03-14T07:05:10.780Z,94379.69
2024-03-14T07:07:38.986Z,94374.97
2024-03-14T07:10:10.240Z,94378.31
2024-03-14T07:12:38.100Z,94383.06
2024-03-14T07:15:11.432Z,94379.53
2024-03-14T07:17:39.322Z,94385.19
2024-03-14T07:20:11.338Z,94389.16
2024-03-14T07:22:39.322Z,94383.22
2024-03-14T07:25:09.907Z,94378.75
2024-03-14T07:27:37.469Z,94384.84
2024-03-14T07:30:05.520Z,94386.06
2024-03-14T07:32:32.960Z,94385.47
2024-03-14T07:35:00.047Z,94386.63
2024-03-14T07:37:27.131Z,94383.41
2024-03-14T07:39:54.546Z,94388.75
2024-03-14T07:42:21.939Z,94382.81
2024-03-14T07:44:49.237Z,94390.91
2024-03-14T07:47:21.374Z,94392.09
2024-03-14T07:49:49.245Z,94400.28
2024-03-14T07:52:17.179Z,94395.47
2024-03-14T07:54:46.535Z,94389.75
2024-03-14T07:57:14.975Z,94388.16
2024-03-14T07:59:43.170Z,94401.75
2024-03-14T08:02:13.379Z,94400.59
2024-03-14T08:04:42.975Z,94402.75
2024-03-14T08:07:16.012Z,94405.22
2024-03-14T08:09:43.829Z,94400.66
2024-03-14T08:12:12.297Z,94399.28
2024-03-14T08:14:47.879Z,94392.84
2024-03-14T08:17:15.317Z,94407.78
2024-03-14T08:19:42.764Z,94404.78
2024-03-14T08:22:10.796Z,94404.69
2024-03-14T08:24:44.794Z,94408.56
2024-03-14T08:27:13.648Z,94408.88
2024-03-14T08:29:41.597Z,94414.03
2024-03-14T08:32:10.397Z,94394.72
2024-03-14T08:34:37.665Z,94411.09
2024-03-14T08:37:05.154Z,94412.66
2024-03-14T08:39:32.261Z,94408.38
2024-03-14T08:42:00.371Z,94402.94
2024-03-14T08:44:30.252Z,94414.66
2024-03-14T08:46:57.739Z,94403.63
2024-03-14T08:49:34.172Z,94412.28
2024-03-14T08:52:06.059Z,94404.03
2024-03-14T08:54:35.184Z,94398.53
2024-03-14T08:57:05.309Z,94397.34
2024-03-14T08:59:37.565Z,94404.41
2024-03-14T09:02:04.781Z,94407.59
2024-03-14T09:04:32.217Z,94404.03
2024-03-14T09:06:59.636Z,94400.34
2024-03-14T09:09:36.218Z,94403.53
2024-03-14T09:12:23.744Z,94403.31
2024-03-14T09:14:51.856Z,94395.97
2024-03-14T09:17:19.582Z,94412.47
2024-03-14T09:19:46.868Z,94414.66
2024-03-14T09:22:14.172Z,94400.22
2024-03-14T09:24:41.348Z,94400.44
2024-03-14T09:27:08.418Z,94402.53
2024-03-14T09:29:36.360Z,94402.13
2024-03-14T09:32:05.001Z,94404.69
2024-03-14T09:34:32.113Z,94407.19
2024-03-14T09:36:59.309Z,94405.78
2024-03-14T09:39:37.209Z,94399.13
2024-03-14T09:42:05.258Z,94425.84
2024-03-14T09:44:33.655Z,94417.19
2024-03-14T09:47:22.155Z,94409.78
2024-03-14T09:49:54.766Z,94406.00
2024-03-14T09:52:22.089Z,94416.84
2024-03-14T09:54:50.919Z,94424.88
2024-03-14T09:57:21.501Z,94420.50
2024-03-14T09:59:49.358Z,94416.75
2024-03-14T10:02:18.876Z,94429.44
2024-03-14T10:04:45.986Z,94422.19
2024-03-14T10:07:13.061Z,94423.09
2024-03-14T10:09:40.807Z,94445.13
2024-03-14T10:12:18.557Z,94430.41
2024-03-14T10:14:46.024Z,94431.34
2024-03-14T10:17:13.149Z,94439.97
2024-03-14T10:19:42.035Z,94448.75
2024-03-14T10:22:09.774Z,94458.88
2024-03-14T10:24:36.840Z,94461.13
2024-03-14T10:27:06.667Z,94455.84
2024-03-14T10:29:34.545Z,94460.75
2024-03-14T10:32:01.979Z,94457.94
2024-03-14T10:34:29.927Z,94467.44
2024-03-14T10:36:58.572Z,94472.81
2024-03-14T10:39:35.216Z,94467.28
2024-03-14T10:42:03.584Z,94468.06
2024-03-14T10:44:32.542Z,94465.59
2024-03-14T10:47:00.465Z,94467.16
2024-03-14T10:49:30.525Z,94470.66
2024-03-14T10:52:01.689Z,94484.22
2024-03-14T10:54:33.068Z,94483.72
2024-03-14T10:57:01.363Z,94472.84
2024-03-14T10:59:30.486Z,94482.47
2024-03-14T11:01:58.882Z,94484.94
2024-03-14T11:04:26.536Z,94482.34
2024-03-14T11:06:59.857Z,94483.06
2024-03-14T11:09:28.119Z,94484.66
2024-03-14T11:11:59.539Z,94484.03
2024-03-14T11:14:42.113Z,94490.28
2024-03-14T11:17:11.862Z,94495.69
2024-03-14T11:19:47.018Z,94491.50
2024-03-14T11:22:22.236Z,94492.13
2024-03-14T11:24:53.925Z,94487.25
2024-03-14T11:27:22.827Z,94476.13
2024-03-14T11:29:50.444Z,94486.31
2024-03-14T11:32:25.479Z,94484.88
2024-03-14T11:34:52.673Z,94507.09
2024-03-14T11:37:20.347Z,94489.00
2024-03-14T11:39:50.685Z,94497.09
2024-03-14T11:42:21.590Z,94506.94
2024-03-14T11:44:49.210Z,94502.09
2024-03-14T11:47:42.926Z,94503.69
2024-03-14T11:50:10.801Z,94505.28
2024-03-14T11:52:38.023Z,94509.13
2024-03-14T11:55:09.086Z,94515.78
2024-03-14T11:57:36.356Z,94521.69
2024-03-14T12:00:09.554Z,94505.28
2024-03-14T12:02:36.954Z,94520.19
2024-03-14T12:05:06.966Z,94501.22
2024-03-14T12:07:35.115Z,94508.75
2024-03-14T12:10:05.553Z,94518.03
2024-03-14T12:12:34.540Z,94524.41
2024-03-14T12:15:01.700Z,94516.13
2024-03-14T12:17:30.387Z,94511.09
2024-03-14T12:19:58.054Z,94506.31
2024-03-14T12:22:25.035Z,94507.97
2024-03-14T12:25:02.131Z,94509.19
2024-03-14T12:27:29.341Z,94516.00
2024-03-14T12:29:59.908Z,94521.06
2024-03-14T12:32:27.141Z,94526.78
2024-03-14T12:34:54.130Z,94511.53
2024-03-14T12:37:24.078Z,94505.94
2024-03-14T12:39:52.167Z,94504.25
2024-03-14T12:42:19.464Z,94512.69
2024-03-14T12:44:46.988Z,94500.66
2024-03-14T12:47:15.112Z,94511.00
2024-03-14T12:49:42.642Z,94513.59
2024-03-14T12:52:15.776Z,94516.22
2024-03-14T12:54:44.241Z,94520.84
2024-03-14T12:57:11.818Z,94513.09
2024-03-14T12:59:39.212Z,94507.81
2024-03-14T13:02:07.830Z,94518.38
2024-03-14T13:04:43.462Z,94514.03
2024-03-14T13:07:23.189Z,94520.59
2024-03-14T13:10:13.466Z,94508.00
2024-03-14T13:12:42.132Z,94517.13
2024-03-14T13:15:18.340Z,94517.72
2024-03-14T13:17:55.575Z,94508.16
2024-03-14T13:20:29.047Z,94518.28
2024-03-14T13:22:56.466Z,94517.31
2024-03-14T13:25:23.827Z,94526.59
2024-03-14T13:27:50.933Z,94522.66
2024-03-14T13:30:21.260Z,94531.72
2024-03-14T13:32:49.190Z,94536.03
2024-03-14T13:35:23.277Z,94531.25
2024-03-14T13:37:51.287Z,94537.63
2024-03-14T13:40:21.251Z,94549.38
2024-03-14T13:42:48.663Z,94544.13
2024-03-14T13:45:19.562Z,94545.16
2024-03-14T13:47:49.654Z,94540.59
2024-03-14T13:50:22.857Z,94550.06
2024-03-14T13:52:49.812Z,94547.47
2024-03-14T13:55:26.286Z,94557.09
2024-03-14T13:57:53.800Z,94541.91
2024-03-14T14:00:27.046Z,94535.00
2024-03-14T14:02:58.350Z,94549.19
2024-03-14T14:05:26.972Z,94546.09
2024-03-14T14:07:56.052Z,94540.72
2024-03-14T14:10:23.197Z,94557.06
2024-03-14T14:12:50.625Z,94545.91
2024-03-14T14:15:18.601Z,94540.22
2024-03-14T14:17:46.050Z,94553.81
2024-03-14T14:20:18.507Z,94552.44
2024-03-14T14:22:47.083Z,94545.44
2024-03-14T14:25:14.202Z,94555.63
2024-03-14T14:27:46.535Z,94553.00
2024-03-14T14:30:22.899Z,94551.28
2024-03-14T14:32:50.628Z,94559.31
2024-03-14T14:35:17.633Z,94570.59
2024-03-14T14:37:47.699Z,94573.84
2024-03-14T14:40:15.257Z,94571.75
2024-03-14T14:42:43.255Z,94572.78
2024-03-14T14:45:10.541Z,94567.44
2024-03-14T14:47:38.218Z,94569.13
2024-03-14T14:50:06.606Z,94576.19
2024-03-14T14:52:37.325Z,94564.75
2024-03-14T14:55:05.777Z,94570.19
2024-03-14T14:57:33.280Z,94577.38
2024-03-14T15:00:01.514Z,94578.47
2024-03-14T15:02:29.758Z,94570.38
2024-03-14T15:04:56.929Z,94567.63
2024-03-14T15:07:24.074Z,94574.84
2024-03-14T15:09:51.126Z,94575.13
2024-03-14T15:12:21.038Z,94565.91
2024-03-14T15:14:48.182Z,94569.84
2024-03-14T15:17:17.979Z,94569.88
2024-03-14T15:19:46.458Z,94569.47
2024-03-14T15:22:13.481Z,94575.84
2024-03-14T15:24:41.380Z,94568.09
2024-03-14T15:27:09.059Z,94570.50
2024-03-14T15:29:39.480Z,94571.19
2024-03-14T15:32:07.851Z,94574.88
2024-03-14T15:34:35.061Z,94580.47
2024-03-14T15:37:02.061Z,94571.19
2024-03-14T15:39:31.986Z,94578.75
2024-03-14T15:42:01.938Z,94572.28
2024-03-14T15:44:29.236Z,94580.81
2024-03-14T15:46:59.131Z,94577.94
2024-03-14T15:49:27.312Z,94576.69
2024-03-14T15:51:57.458Z,94583.31
2024-03-14T15:54:24.675Z,94585.38
2024-03-14T15:56:51.862Z,94588.22
2024-03-14T15:59:19.273Z,94585.28
2024-03-14T16:01:48.189Z,94589.19
2024-03-14T16:04:16.144Z,94593.94
2024-03-14T16:06:43.140Z,94595.59
2024-03-14T16:09:10.204Z,94603.47
2024-03-14T16:11:42.261Z,94596.75
2024-03-14T16:14:12.253Z,94604.06
2024-03-14T16:16:39.391Z,94596.16
2024-03-14T16:19:06.806Z,94600.22
2024-03-14T16:21:34.000Z,94593.50
2024-03-14T16:24:05.797Z,94604.38
2024-03-14T16:26:35.217Z,94610.13
2024-03-14T16:29:03.597Z,94610.94
2024-03-14T16:31:31.425Z,94608.19
2024-03-14T16:33:59.205Z,94611.50
2024-03-14T16:36:26.514Z,94609.63
2024-03-14T16:38:53.530Z,94615.81
2024-03-14T16:41:20.514Z,94612.53
2024-03-14T16:43:47.530Z,94615.81
2024-03-14T16:46:15.785Z,94616.16
2024-03-14T16:48:42.868Z,94616.56
2024-03-14T16:51:10.069Z,94619.88
2024-03-14T16:53:39.133Z,94622.84
2024-03-14T16:56:07.559Z,94631.16
2024-03-14T16:58:34.841Z,94634.41
2024-03-14T17:01:02.071Z,94632.06
2024-03-14T17:03:29.284Z,94642.94
2024-03-14T17:05:58.448Z,94647.88
2024-03-14T17:08:25.433Z,94645.19
2024-03-14T17:10:53.299Z,94658.06
2024-03-14T17:13:20.501Z,94645.28
2024-03-14T17:15:47.633Z,94657.56
2024-03-14T17:18:14.792Z,94664.03
2024-03-14T17:20:41.860Z,94657.06
2024-03-14T17:23:12.714Z,94669.78
2024-03-14T17:25:40.500Z,94667.69
2024-03-14T17:28:07.883Z,94674.13
2024-03-14T17:30:34.962Z,94668.75
2024-03-14T17:33:02.096Z,94670.84
2024-03-14T17:35:31.137Z,94664.84
2024-03-14T17:37:58.302Z,94667.94
2024-03-14T17:40:25.458Z,94670.50
2024-03-14T17:42:52.577Z,94670.78
2024-03-14T17:45:23.952Z,94672.44
2024-03-14T17:47:53.050Z,94666.00
2024-03-14T17:50:21.718Z,94683.19
2024-03-14T17:52:50.583Z,94674.13
2024-03-14T17:55:17.883Z,94676.78
2024-03-14T17:57:48.460Z,94677.00
2024-03-14T18:00:19.488Z,94672.44
2024-03-14T18:02:49.945Z,94684.91
2024-03-14T18:05:17.783Z,94677.06
2024-03-14T18:07:45.633Z,94686.13
2024-03-14T18:10:14.706Z,94681.84
2024-03-14T18:12:42.836Z,94695.53
2024-03-14T18:15:10.439Z,94690.50
2024-03-14T18:17:40.961Z,94681.97
2024-03-14T18:20:14.250Z,94688.97
2024-03-14T18:22:46.166Z,94684.91
2024-03-14T18:25:18.790Z,94686.69
2024-03-14T18:27:49.045Z,94687.13
2024-03-14T18:30:20.895Z,94683.44
2024-03-14T18:32:49.258Z,94685.69
2024-03-14T18:35:21.428Z,94693.16
2024-03-14T18:37:51.606Z,94685.16
2024-03-14T18:40:20.585Z,94691.56
2024-03-14T18:42:49.294Z,94692.88
2024-03-14T18:45:18.413Z,94694.00
2024-03-14T18:47:46.266Z,94697.44
2024-03-14T18:50:13.618Z,94688.56
2024-03-14T18:52:41.125Z,94690.69
2024-03-14T18:55:08.457Z,94693.91
2024-03-14T18:57:35.575Z,94691.50
2024-03-14T19:00:03.011Z,94691.25
2024-03-14T19:02:30.014Z,94698.09
2024-03-14T19:04:57.879Z,94693.22
2024-03-14T19:07:25.506Z,94698.63
2024-03-14T19:09:52.537Z,94704.22
2024-03-14T19:12:20.047Z,94704.63
2024-03-14T19:14:47.101Z,94690.53
2024-03-14T19:17:19.600Z,94688.84
2024-03-14T19:19:49.610Z,94687.09
2024-03-14T19:22:18.221Z,94693.06
2024-03-14T19:24:45.975Z,94691.97
2024-03-14T19:27:13.761Z,94693.53
2024-03-14T19:29:40.805Z,94691.69
2024-03-14T19:32:07.806Z,94697.09
2024-03-14T19:34:35.979Z,94699.03
2024-03-14T19:37:05.736Z,94702.53
2024-03-14T19:39:34.490Z,94701.25
2024-03-14T19:42:02.470Z,94700.22
2024-03-14T19:44:30.684Z,94701.81
2024-03-14T19:46:58.626Z,94701.31
2024-03-14T19:49:25.896Z,94705.63
2024-03-14T19:51:53.003Z,94704.53
2024-03-14T19:54:20.023Z,94699.81
2024-03-14T19:56:48.195Z,94705.19
2024-03-14T19:59:15.528Z,94707.06
2024-03-14T20:01:42.801Z,94706.19
2024-03-14T20:04:10.034Z,94705.75
2024-03-14T20:06:37.297Z,94702.19
2024-03-14T20:09:06.459Z,94703.78
2024-03-14T20:11:34.688Z,94699.00
2024-03-14T20:14:02.228Z,94699.94
2024-03-14T20:16:31.379Z,94704.25
2024-03-14T20:18:58.959Z,94697.72
2024-03-14T20:21:32.771Z,94698.84
2024-03-14T20:23:59.903Z,94689.22
2024-03-14T20:26:27.607Z,94694.31
2024-03-14T20:28:54.918Z,94687.38
2024-03-14T20:31:22.832Z,94686.03
2024-03-14T20:33:50.359Z,94691.91
2024-03-14T20:36:18.649Z,94690.03
2024-03-14T20:38:45.779Z,94694.03
2024-03-14T20:43:42.900Z,94682.25
2024-03-14T20:46:11.928Z,94687.25
2024-03-14T20:48:39.421Z,94690.16
2024-03-14T20:51:06.476Z,94689.19
2024-03-14T20:53:33.513Z,94685.19
2024-03-14T20:56:10.500Z,94688.13
2024-03-14T20:58:38.957Z,94686.03
2024-03-14T21:01:06.413Z,94684.94
2024-03-14T21:03:33.501Z,94685.91
2024-03-14T21:06:03.708Z,94688.06
2024-03-14T21:08:32.051Z,94681.63
2024-03-14T21:11:01.486Z,94676.63
2024-03-14T21:13:30.389Z,94674.78
2024-03-14T21:15:57.879Z,94681.34
2024-03-14T21:18:24.966Z,94674.72
2024-03-14T21:20:57.213Z,94682.78
2024-03-14T21:23:24.397Z,94673.69
2024-03-14T21:25:53.979Z,94672.59
2024-03-14T21:28:21.057Z,94669.94
2024-03-14T21:30:49.702Z,94675.75
2024-03-14T21:33:18.137Z,94676.28
2024-03-14T21:35:49.521Z,94677.06
2024-03-14T21:38:16.686Z,94674.41
2024-03-14T21:40:44.138Z,94665.09
2024-03-14T21:43:11.937Z,94670.50
2024-03-14T21:45:40.756Z,94665.16
2024-03-14T21:48:12.153Z,94665.63
2024-03-14T21:50:39.619Z,94674.25
2024-03-14T21:53:06.694Z,94672.66
2024-03-14T21:55:34.008Z,94668.38
2024-03-14T21:58:01.053Z,94676.13
2024-03-14T22:00:28.246Z,94668.38
2024-03-14T22:02:55.464Z,94669.97
2024-03-14T22:05:22.447Z,94667.81
2024-03-14T22:07:49.437Z,94663.03
2024-03-14T22:10:16.641Z,94670.72
2024-03-14T22:12:43.580Z,94664.81
2024-03-14T22:15:14.038Z,94673.91
2024-03-14T22:17:45.135Z,94662.97
2024-03-14T22:20:12.818Z,94657.06
2024-03-14T22:22:39.759Z,94667.22
2024-03-14T22:25:11.432Z,94672.09
2024-03-14T22:27:40.274Z,94667.28
2024-03-14T22:30:10.212Z,94666.13
2024-03-14T22:32:38.157Z,94666.69
2024-03-14T22:35:05.862Z,94668.00
2024-03-14T22:37:33.227Z,94659.78
2024-03-14T22:40:00.500Z,94660.06
2024-03-14T22:42:27.710Z,94659.78
2024-03-14T22:44:55.056Z,94660.31
2024-03-14T22:47:21.940Z,94657.91
2024-03-14T22:49:49.034Z,94648.03
2024-03-14T22:52:16.102Z,94654.72
2024-03-14T22:54:45.721Z,94653.88
2024-03-14T22:57:13.140Z,94646.13
2024-03-14T22:59:40.231Z,94652.06
2024-03-14T23:02:07.672Z,94649.69
2024-03-14T23:04:36.985Z,94649.72
2024-03-14T23:07:07.511Z,94652.94
2024-03-14T23:09:35.393Z,94650.81
2024-03-14T23:12:02.493Z,94648.13
2024-03-14T23:14:30.767Z,94644.66
2024-03-14T23:16:57.686Z,94643.31
2024-03-14T23:19:24.625Z,94642.78
2024-03-14T23:21:51.592Z,94650.81
2024-03-14T23:24:19.163Z,94645.97
2024-03-14T23:26:46.598Z,94647.53
2024-03-14T23:29:14.019Z,94646.22
2024-03-14T23:31:41.794Z,94648.91
2024-03-14T23:34:10.689Z,94652.63
2024-03-14T23:36:38.397Z,94650.75
2024-03-14T23:39:07.793Z,94644.88
2024-03-14T23:41:35.245Z,94640.03
2024-03-14T23:44:02.556Z,94643.75
2024-03-14T23:46:30.501Z,94641.06
2024-03-14T23:48:57.814Z,94633.88
2024-03-14T23:51:26.208Z,94635.25
2024-03-14T23:53:54.248Z,94634.69
2024-03-14T23:56:21.305Z,94642.19
2024-03-14T23:58:49.712Z,94637.88
